createdAt,value
2023-02-26T00:00:43.173Z,84.15
2023-02-26T00:01:33.170Z,84.78
2023-02-26T00:02:23.149Z,86.35
2023-02-26T00:03:13.184Z,86.87
2023-02-26T00:04:03.160Z,86.66
2023-02-26T00:04:53.137Z,87.60
2023-02-26T00:05:43.146Z,87.81
2023-02-26T00:06:33.152Z,86.24
2023-02-26T00:07:23.099Z,84.46
2023-02-26T00:08:13.096Z,84.36
2023-02-26T00:09:03.085Z,84.46
2023-02-26T00:09:53.066Z,85.41
2023-02-26T00:10:43.063Z,86.66
2023-02-26T00:11:33.053Z,85.82
2023-02-26T00:12:23.069Z,85.19
2023-02-26T00:13:13.039Z,85.61
2023-02-26T00:14:03.037Z,85.30
2023-02-26T00:14:53.025Z,85.30
2023-02-26T00:15:43.024Z,84.56
2023-02-26T00:16:33.106Z,84.05
2023-02-26T00:17:23.039Z,84.99
2023-02-26T00:18:12.982Z,83.31
2023-02-26T00:19:02.975Z,83.62
2023-02-26T00:19:52.982Z,84.56
2023-02-26T00:20:42.953Z,84.78
2023-02-26T00:21:32.987Z,84.46
2023-02-26T00:22:22.938Z,84.05
2023-02-26T00:23:12.906Z,83.62
2023-02-26T00:24:02.929Z,84.36
2023-02-26T00:24:52.937Z,83.73
2023-02-26T00:25:42.884Z,84.05
2023-02-26T00:26:32.900Z,83.31
2023-02-26T00:27:22.923Z,83.83
2023-02-26T00:28:12.880Z,83.10
2023-02-26T00:29:02.861Z,83.10
2023-02-26T00:29:52.869Z,83.21
2023-02-26T00:30:42.956Z,83.73
2023-02-26T00:31:32.885Z,81.85
2023-02-26T00:32:22.951Z,82.58
2023-02-26T00:33:12.833Z,82.47
2023-02-26T00:34:02.822Z,82.68
2023-02-26T00:34:52.798Z,82.68
2023-02-26T00:35:42.811Z,82.79
2023-02-26T00:36:32.860Z,83.00
2023-02-26T00:37:22.779Z,82.68
2023-02-26T00:38:12.764Z,82.47
2023-02-26T00:39:02.776Z,82.79
2023-02-26T00:39:52.760Z,82.68
2023-02-26T00:40:42.781Z,82.06
2023-02-26T00:41:32.811Z,82.16
2023-02-26T00:42:22.727Z,81.32
2023-02-26T00:43:12.709Z,81.85
2023-02-26T00:44:02.715Z,82.37
2023-02-26T00:44:52.720Z,82.26
2023-02-26T00:45:42.732Z,82.16
2023-02-26T00:46:32.779Z,81.85
2023-02-26T00:47:22.678Z,81.99
2023-02-26T00:48:12.675Z,81.67
2023-02-26T00:49:02.650Z,81.36
2023-02-26T00:49:52.639Z,82.09
2023-02-26T00:50:42.630Z,81.67
2023-02-26T00:51:32.638Z,82.09
2023-02-26T00:52:22.618Z,82.30
2023-02-26T00:53:12.597Z,82.62
2023-02-26T00:54:02.608Z,82.72
2023-02-26T00:54:52.599Z,83.03
2023-02-26T00:55:42.587Z,83.03
2023-02-26T00:56:32.564Z,82.40
2023-02-26T00:57:22.565Z,81.99
2023-02-26T00:58:12.561Z,82.72
2023-02-26T00:59:02.537Z,82.82
2023-02-26T00:59:52.548Z,82.72
2023-02-26T01:00:42.527Z,82.45
2023-02-26T01:01:32.541Z,82.51
2023-02-26T01:02:22.502Z,81.88
2023-02-26T01:03:12.501Z,82.40
2023-02-26T01:04:02.552Z,82.40
2023-02-26T01:04:52.475Z,82.23
2023-02-26T01:05:42.466Z,81.92
2023-02-26T01:06:32.474Z,82.03
2023-02-26T01:07:22.491Z,82.13
2023-02-26T01:08:12.442Z,81.60
2023-02-26T01:09:02.464Z,81.71
2023-02-26T01:09:52.430Z,81.71
2023-02-26T01:10:42.422Z,81.71
2023-02-26T01:11:32.414Z,81.71
2023-02-26T01:12:22.403Z,82.34
2023-02-26T01:13:12.395Z,82.76
2023-02-26T01:14:02.374Z,82.97
2023-02-26T01:14:52.406Z,82.65
2023-02-26T01:15:42.398Z,83.28
2023-02-26T01:16:32.381Z,82.97
2023-02-26T01:17:22.337Z,83.59
2023-02-26T01:18:12.340Z,83.70
2023-02-26T01:19:02.331Z,83.22
2023-02-26T01:19:52.330Z,83.01
2023-02-26T01:20:42.304Z,83.01
2023-02-26T01:21:32.328Z,82.69
2023-02-26T01:22:22.299Z,83.11
2023-02-26T01:23:12.283Z,83.01
2023-02-26T01:24:02.277Z,83.64
2023-02-26T01:24:52.277Z,84.16
2023-02-26T01:25:42.260Z,84.37
2023-02-26T01:26:32.243Z,83.84
2023-02-26T01:27:22.238Z,83.53
2023-02-26T01:28:12.234Z,83.74
2023-02-26T01:29:02.210Z,84.16
2023-02-26T01:29:52.197Z,83.74
2023-02-26T01:30:42.252Z,83.84
2023-02-26T01:31:32.325Z,83.95
2023-02-26T01:32:22.307Z,84.05
2023-02-26T01:33:12.170Z,83.74
2023-02-26T01:34:02.167Z,83.84
2023-02-26T01:34:52.155Z,83.95
2023-02-26T01:35:42.146Z,84.09
2023-02-26T01:36:32.135Z,84.09
2023-02-26T01:37:22.134Z,84.51
2023-02-26T01:38:12.147Z,84.62
2023-02-26T01:39:02.216Z,84.30
2023-02-26T01:39:52.112Z,84.05
2023-02-26T01:40:42.104Z,83.53
2023-02-26T01:41:32.097Z,83.32
2023-02-26T01:42:22.072Z,84.05
2023-02-26T01:43:12.068Z,83.42
2023-02-26T01:44:02.058Z,83.47
2023-02-26T01:44:52.063Z,83.36
2023-02-26T01:45:42.044Z,83.74
2023-02-26T01:46:32.500Z,83.53
2023-02-26T01:47:22.029Z,84.05
2023-02-26T01:48:12.019Z,83.57
2023-02-26T01:49:02.034Z,83.47
2023-02-26T01:49:52.004Z,83.88
2023-02-26T01:50:42.003Z,83.36
2023-02-26T01:51:31.986Z,83.25
2023-02-26T01:52:21.976Z,83.36
2023-02-26T01:53:11.944Z,83.15
2023-02-26T01:54:01.957Z,83.25
2023-02-26T01:54:51.950Z,83.47
2023-02-26T01:55:41.937Z,83.78
2023-02-26T01:56:31.918Z,83.98
2023-02-26T01:57:21.916Z,84.30
2023-02-26T01:58:11.920Z,84.41
2023-02-26T01:59:01.900Z,84.41
2023-02-26T01:59:51.910Z,84.72
2023-02-26T02:00:41.863Z,85.35
2023-02-26T02:01:31.853Z,84.41
2023-02-26T02:02:22.094Z,84.30
2023-02-26T02:03:11.987Z,84.20
2023-02-26T02:04:01.828Z,84.09
2023-02-26T02:04:51.826Z,84.03
2023-02-26T02:05:41.834Z,84.13
2023-02-26T02:06:31.828Z,84.20
2023-02-26T02:07:21.800Z,84.55
2023-02-26T02:08:11.794Z,85.28
2023-02-26T02:09:01.794Z,85.46
2023-02-26T02:09:51.793Z,85.49
2023-02-26T02:10:41.774Z,84.97
2023-02-26T02:11:31.755Z,85.18
2023-02-26T02:12:21.758Z,85.71
2023-02-26T02:13:11.755Z,85.49
2023-02-26T02:14:01.760Z,84.97
2023-02-26T02:14:51.751Z,84.97
2023-02-26T02:15:41.719Z,85.08
2023-02-26T02:16:31.795Z,85.49
2023-02-26T02:17:21.709Z,86.02
2023-02-26T02:18:11.694Z,86.54
2023-02-26T02:19:01.666Z,86.33
2023-02-26T02:19:51.774Z,85.49
2023-02-26T02:20:41.662Z,84.66
2023-02-26T02:21:31.654Z,85.08
2023-02-26T02:22:21.637Z,85.08
2023-02-26T02:23:11.711Z,85.28
2023-02-26T02:24:01.617Z,85.74
2023-02-26T02:24:51.631Z,85.74
2023-02-26T02:25:41.631Z,85.53
2023-02-26T02:26:31.597Z,85.85
2023-02-26T02:27:21.572Z,85.95
2023-02-26T02:28:11.585Z,86.47
2023-02-26T02:29:01.585Z,86.90
2023-02-26T02:29:51.556Z,87.52
2023-02-26T02:30:41.541Z,87.95
2023-02-26T02:31:31.651Z,87.52
2023-02-26T02:32:21.604Z,86.47
2023-02-26T02:33:11.519Z,86.16
2023-02-26T02:34:01.537Z,86.16
2023-02-26T02:34:51.508Z,86.47
2023-02-26T02:35:41.514Z,86.58
2023-02-26T02:36:31.497Z,86.79
2023-02-26T02:37:21.475Z,85.95
2023-02-26T02:38:11.479Z,85.74
2023-02-26T02:39:01.454Z,85.95
2023-02-26T02:39:51.471Z,86.27
2023-02-26T02:40:41.428Z,86.47
2023-02-26T02:41:31.435Z,88.05
2023-02-26T02:42:21.417Z,88.51
2023-02-26T02:43:11.416Z,88.72
2023-02-26T02:44:01.399Z,88.72
2023-02-26T02:44:51.391Z,88.51
2023-02-26T02:45:41.410Z,88.09
2023-02-26T02:46:31.561Z,88.09
2023-02-26T02:47:21.367Z,88.30
2023-02-26T02:48:11.373Z,88.20
2023-02-26T02:49:01.387Z,88.09
2023-02-26T02:49:51.346Z,88.09
2023-02-26T02:50:41.338Z,88.30
2023-02-26T02:51:31.325Z,88.41
2023-02-26T02:52:21.325Z,87.88
2023-02-26T02:53:11.306Z,87.92
2023-02-26T02:54:01.319Z,87.82
2023-02-26T02:54:51.303Z,87.82
2023-02-26T02:55:41.255Z,87.50
2023-02-26T02:56:31.273Z,87.04
2023-02-26T02:57:21.257Z,85.89
2023-02-26T02:58:11.267Z,85.68
2023-02-26T02:59:01.239Z,85.99
2023-02-26T02:59:51.242Z,86.20
2023-02-26T03:00:41.244Z,86.30
2023-02-26T03:01:31.203Z,86.10
2023-02-26T03:02:21.247Z,85.89
2023-02-26T03:03:11.198Z,85.99
2023-02-26T03:04:01.198Z,86.20
2023-02-26T03:04:51.189Z,86.41
2023-02-26T03:05:41.165Z,86.52
2023-02-26T03:06:31.201Z,86.94
2023-02-26T03:07:21.145Z,87.36
2023-02-26T03:08:11.156Z,87.57
2023-02-26T03:09:01.152Z,87.67
2023-02-26T03:09:51.154Z,87.60
2023-02-26T03:10:41.113Z,87.71
2023-02-26T03:11:31.129Z,87.60
2023-02-26T03:12:21.107Z,87.71
2023-02-26T03:13:11.106Z,88.13
2023-02-26T03:14:01.082Z,88.55
2023-02-26T03:14:51.090Z,88.66
2023-02-26T03:15:41.068Z,88.55
2023-02-26T03:16:31.146Z,88.55
2023-02-26T03:17:21.081Z,88.87
2023-02-26T03:18:11.033Z,89.29
2023-02-26T03:19:01.041Z,89.60
2023-02-26T03:19:51.025Z,89.92
2023-02-26T03:20:41.014Z,89.92
2023-02-26T03:21:31.036Z,89.92
2023-02-26T03:22:20.995Z,90.02
2023-02-26T03:23:11.015Z,90.23
2023-02-26T03:24:00.973Z,89.71
2023-02-26T03:24:50.977Z,89.22
2023-02-26T03:25:40.957Z,88.91
2023-02-26T03:26:30.954Z,89.43
2023-02-26T03:27:20.925Z,89.71
2023-02-26T03:28:10.953Z,90.02
2023-02-26T03:29:00.957Z,90.38
2023-02-26T03:29:50.914Z,89.86
2023-02-26T03:30:40.943Z,89.32
2023-02-26T03:31:30.914Z,89.64
2023-02-26T03:32:20.998Z,89.71
2023-02-26T03:33:10.887Z,89.43
2023-02-26T03:34:00.859Z,89.39
2023-02-26T03:34:50.880Z,89.92
2023-02-26T03:35:40.859Z,90.02
2023-02-26T03:36:30.856Z,89.60
2023-02-26T03:37:20.834Z,89.29
2023-02-26T03:38:10.830Z,88.45
2023-02-26T03:39:00.829Z,87.92
2023-02-26T03:39:50.823Z,87.92
2023-02-26T03:40:40.793Z,88.02
2023-02-26T03:41:30.792Z,87.29
2023-02-26T03:42:20.782Z,87.92
2023-02-26T03:43:10.792Z,87.19
2023-02-26T03:44:00.763Z,86.55
2023-02-26T03:44:50.765Z,86.20
2023-02-26T03:45:40.938Z,86.10
2023-02-26T03:46:30.723Z,85.89
2023-02-26T03:47:20.756Z,85.99
2023-02-26T03:48:10.723Z,86.41
2023-02-26T03:49:00.779Z,87.67
2023-02-26T03:49:50.706Z,88.20
2023-02-26T03:50:40.702Z,87.88
2023-02-26T03:51:30.706Z,87.57
2023-02-26T03:52:20.651Z,87.36
2023-02-26T03:53:10.683Z,86.94
2023-02-26T03:54:00.654Z,86.30
2023-02-26T03:54:50.652Z,86.10
2023-02-26T03:55:40.634Z,86.20
2023-02-26T03:56:30.624Z,86.52
2023-02-26T03:57:20.626Z,85.82
2023-02-26T03:58:10.611Z,86.13
2023-02-26T03:59:00.615Z,86.03
2023-02-26T03:59:50.599Z,85.93
2023-02-26T04:00:43.039Z,85.93
2023-02-26T04:01:30.559Z,86.03
2023-02-26T04:02:20.622Z,86.35
2023-02-26T04:03:10.565Z,86.35
2023-02-26T04:04:00.629Z,87.08
2023-02-26T04:04:50.538Z,87.40
2023-02-26T04:05:40.544Z,87.29
2023-02-26T04:06:30.518Z,86.66
2023-02-26T04:07:20.541Z,86.45
2023-02-26T04:08:10.500Z,86.13
2023-02-26T04:09:00.487Z,85.08
2023-02-26T04:09:50.480Z,84.88
2023-02-26T04:10:40.467Z,85.08
2023-02-26T04:11:30.469Z,85.50
2023-02-26T04:12:20.458Z,85.72
2023-02-26T04:13:10.490Z,85.82
2023-02-26T04:14:00.477Z,85.72
2023-02-26T04:14:50.432Z,85.72
2023-02-26T04:15:40.428Z,86.24
2023-02-26T04:16:30.511Z,85.93
2023-02-26T04:17:20.405Z,85.40
2023-02-26T04:18:10.398Z,85.40
2023-02-26T04:19:00.397Z,85.61
2023-02-26T04:19:50.386Z,86.66
2023-02-26T04:20:40.359Z,87.50
2023-02-26T04:21:30.347Z,87.92
2023-02-26T04:22:20.369Z,87.71
2023-02-26T04:23:10.369Z,87.71
2023-02-26T04:24:00.326Z,88.13
2023-02-26T04:24:50.330Z,88.13
2023-02-26T04:25:40.316Z,87.54
2023-02-26T04:26:30.296Z,87.12
2023-02-26T04:27:20.292Z,87.02
2023-02-26T04:28:10.295Z,87.96
2023-02-26T04:29:00.271Z,87.85
2023-02-26T04:29:50.276Z,87.75
2023-02-26T04:30:40.280Z,87.65
2023-02-26T04:31:30.349Z,87.85
2023-02-26T04:32:20.285Z,87.96
2023-02-26T04:33:10.246Z,87.85
2023-02-26T04:34:00.219Z,87.85
2023-02-26T04:34:50.208Z,87.85
2023-02-26T04:35:40.208Z,87.65
2023-02-26T04:36:30.193Z,87.54
2023-02-26T04:37:20.217Z,87.44
2023-02-26T04:38:10.157Z,87.23
2023-02-26T04:39:00.156Z,87.27
2023-02-26T04:39:50.148Z,87.48
2023-02-26T04:40:40.166Z,87.48
2023-02-26T04:41:30.118Z,87.48
2023-02-26T04:42:20.129Z,87.48
2023-02-26T04:43:10.132Z,87.79
2023-02-26T04:44:00.128Z,88.63
2023-02-26T04:44:50.108Z,89.05
2023-02-26T04:45:40.093Z,89.58
2023-02-26T04:46:30.181Z,89.58
2023-02-26T04:47:20.075Z,89.16
2023-02-26T04:48:10.075Z,89.16
2023-02-26T04:49:00.044Z,89.26
2023-02-26T04:49:50.044Z,89.05
2023-02-26T04:50:40.032Z,89.16
2023-02-26T04:51:30.019Z,89.37
2023-02-26T04:52:20.060Z,89.47
2023-02-26T04:53:10.022Z,89.26
2023-02-26T04:54:00.003Z,89.69
2023-02-26T04:54:49.999Z,89.89
2023-02-26T04:55:39.982Z,89.72
2023-02-26T04:56:29.949Z,89.51
2023-02-26T04:57:19.961Z,89.72
2023-02-26T04:58:09.950Z,89.94
2023-02-26T04:58:59.936Z,89.94
2023-02-26T04:59:49.926Z,89.94
2023-02-26T05:00:39.941Z,90.04
2023-02-26T05:01:29.951Z,90.04
2023-02-26T05:02:19.907Z,89.94
2023-02-26T05:03:09.922Z,89.72
2023-02-26T05:03:59.913Z,90.04
2023-02-26T05:04:50.009Z,90.25
2023-02-26T05:05:39.876Z,90.46
2023-02-26T05:06:29.865Z,90.56
2023-02-26T05:07:19.860Z,90.56
2023-02-26T05:08:09.846Z,90.67
2023-02-26T05:08:59.865Z,90.88
2023-02-26T05:09:49.838Z,91.03
2023-02-26T05:10:39.834Z,91.30
2023-02-26T05:11:29.829Z,91.72
2023-02-26T05:12:19.797Z,91.83
2023-02-26T05:13:09.790Z,91.41
2023-02-26T05:13:59.800Z,91.03
2023-02-26T05:14:49.783Z,90.82
2023-02-26T05:15:39.769Z,90.71
2023-02-26T05:16:30.044Z,90.71
2023-02-26T05:17:19.740Z,91.03
2023-02-26T05:18:09.731Z,91.45
2023-02-26T05:18:59.732Z,91.55
2023-02-26T05:19:49.721Z,92.29
2023-02-26T05:20:39.720Z,93.13
2023-02-26T05:21:29.711Z,93.66
2023-02-26T05:22:19.704Z,93.76
2023-02-26T05:23:09.677Z,93.76
2023-02-26T05:23:59.670Z,93.87
2023-02-26T05:24:49.663Z,94.08
2023-02-26T05:25:39.673Z,94.18
2023-02-26T05:26:29.659Z,94.18
2023-02-26T05:27:19.675Z,93.98
2023-02-26T05:28:09.630Z,93.76
2023-02-26T05:28:59.621Z,93.45
2023-02-26T05:29:49.614Z,92.92
2023-02-26T05:30:39.629Z,93.24
2023-02-26T05:31:29.609Z,93.98
2023-02-26T05:32:19.659Z,94.50
2023-02-26T05:33:09.583Z,94.60
2023-02-26T05:33:59.562Z,94.60
2023-02-26T05:34:49.567Z,94.60
2023-02-26T05:35:39.559Z,94.50
2023-02-26T05:36:29.552Z,94.29
2023-02-26T05:37:19.528Z,94.18
2023-02-26T05:38:09.504Z,94.08
2023-02-26T05:38:59.517Z,94.18
2023-02-26T05:39:49.493Z,94.29
2023-02-26T05:40:39.523Z,94.25
2023-02-26T05:41:29.477Z,93.87
2023-02-26T05:42:19.466Z,93.87
2023-02-26T05:43:09.488Z,93.93
2023-02-26T05:43:59.465Z,94.14
2023-02-26T05:44:49.458Z,94.35
2023-02-26T05:45:39.491Z,93.93
2023-02-26T05:46:29.674Z,93.30
2023-02-26T05:47:19.425Z,93.51
2023-02-26T05:48:09.436Z,93.83
2023-02-26T05:48:59.412Z,93.93
2023-02-26T05:49:49.373Z,94.25
2023-02-26T05:50:39.453Z,94.56
2023-02-26T05:51:29.383Z,94.25
2023-02-26T05:52:19.374Z,94.14
2023-02-26T05:53:09.360Z,93.93
2023-02-26T05:53:59.361Z,92.88
2023-02-26T05:54:49.432Z,92.46
2023-02-26T05:55:39.331Z,92.25
2023-02-26T05:56:29.362Z,91.62
2023-02-26T05:57:19.307Z,90.46
2023-02-26T05:58:09.313Z,90.25
2023-02-26T05:58:59.300Z,90.46
2023-02-26T05:59:49.303Z,90.84
2023-02-26T06:00:39.274Z,90.21
2023-02-26T06:01:29.283Z,89.69
2023-02-26T06:02:19.289Z,89.47
2023-02-26T06:03:09.294Z,89.69
2023-02-26T06:03:59.249Z,89.37
2023-02-26T06:04:49.236Z,89.05
2023-02-26T06:05:39.219Z,88.74
2023-02-26T06:06:29.203Z,89.05
2023-02-26T06:07:19.220Z,88.80
2023-02-26T06:08:09.211Z,88.59
2023-02-26T06:08:59.207Z,88.59
2023-02-26T06:09:49.195Z,88.38
2023-02-26T06:10:39.256Z,88.17
2023-02-26T06:11:29.165Z,88.07
2023-02-26T06:12:19.155Z,88.28
2023-02-26T06:13:09.170Z,88.07
2023-02-26T06:13:59.123Z,87.85
2023-02-26T06:14:49.115Z,87.85
2023-02-26T06:15:39.135Z,87.65
2023-02-26T06:16:29.321Z,87.02
2023-02-26T06:17:19.105Z,87.33
2023-02-26T06:18:09.087Z,87.65
2023-02-26T06:18:59.085Z,87.33
2023-02-26T06:19:49.086Z,87.02
2023-02-26T06:20:39.064Z,87.12
2023-02-26T06:21:29.041Z,87.33
2023-02-26T06:22:19.051Z,87.12
2023-02-26T06:23:09.046Z,86.98
2023-02-26T06:23:59.038Z,86.91
2023-02-26T06:24:49.052Z,86.66
2023-02-26T06:25:39.026Z,86.60
2023-02-26T06:26:29.422Z,86.66
2023-02-26T06:27:19.025Z,86.55
2023-02-26T06:28:08.989Z,86.77
2023-02-26T06:28:58.966Z,86.87
2023-02-26T06:29:48.991Z,87.19
2023-02-26T06:30:38.973Z,87.29
2023-02-26T06:31:29.032Z,86.98
2023-02-26T06:32:19.080Z,86.98
2023-02-26T06:33:08.934Z,87.23
2023-02-26T06:33:58.924Z,86.91
2023-02-26T06:34:48.904Z,86.87
2023-02-26T06:35:38.920Z,87.19
2023-02-26T06:36:28.884Z,87.44
2023-02-26T06:37:18.874Z,87.19
2023-02-26T06:38:08.872Z,86.98
2023-02-26T06:38:58.874Z,86.87
2023-02-26T06:39:48.868Z,86.98
2023-02-26T06:40:38.863Z,87.40
2023-02-26T06:41:28.844Z,87.19
2023-02-26T06:42:20.149Z,87.08
2023-02-26T06:43:08.832Z,87.50
2023-02-26T06:43:58.796Z,87.60
2023-02-26T06:44:48.797Z,87.71
2023-02-26T06:45:38.857Z,87.40
2023-02-26T06:46:28.797Z,86.98
2023-02-26T06:47:18.767Z,87.19
2023-02-26T06:48:08.773Z,87.19
2023-02-26T06:48:58.797Z,87.08
2023-02-26T06:49:48.752Z,87.08
2023-02-26T06:50:38.743Z,87.19
2023-02-26T06:51:28.725Z,86.98
2023-02-26T06:52:18.713Z,87.08
2023-02-26T06:53:08.688Z,87.19
2023-02-26T06:53:58.719Z,87.50
2023-02-26T06:54:48.723Z,87.50
2023-02-26T06:55:38.682Z,87.08
2023-02-26T06:56:29.096Z,87.19
2023-02-26T06:57:18.665Z,87.82
2023-02-26T06:58:08.658Z,87.82
2023-02-26T06:58:58.751Z,87.08
2023-02-26T06:59:48.771Z,87.19
2023-02-26T07:00:38.636Z,86.87
2023-02-26T07:01:28.634Z,86.66
2023-02-26T07:02:18.667Z,86.77
2023-02-26T07:03:08.599Z,87.08
2023-02-26T07:03:58.594Z,86.98
2023-02-26T07:04:48.615Z,86.87
2023-02-26T07:05:38.601Z,86.98
2023-02-26T07:06:28.564Z,87.29
2023-02-26T07:07:18.584Z,86.98
2023-02-26T07:08:08.550Z,86.98
2023-02-26T07:08:58.572Z,86.98
2023-02-26T07:09:48.554Z,86.77
2023-02-26T07:10:38.526Z,86.77
2023-02-26T07:11:28.516Z,87.08
2023-02-26T07:12:18.498Z,86.87
2023-02-26T07:13:08.485Z,86.87
2023-02-26T07:13:58.575Z,87.19
2023-02-26T07:14:48.479Z,86.98
2023-02-26T07:15:38.472Z,86.77
2023-02-26T07:16:28.900Z,86.77
2023-02-26T07:17:18.470Z,86.66
2023-02-26T07:18:08.421Z,86.45
2023-02-26T07:18:58.432Z,86.66
2023-02-26T07:19:48.426Z,86.77
2023-02-26T07:20:38.421Z,86.66
2023-02-26T07:21:28.429Z,86.55
2023-02-26T07:22:19.803Z,86.55
2023-02-26T07:23:08.409Z,86.77
2023-02-26T07:23:58.398Z,86.87
2023-02-26T07:24:48.361Z,87.08
2023-02-26T07:25:38.375Z,86.66
2023-02-26T07:26:28.655Z,86.87
2023-02-26T07:27:18.351Z,87.08
2023-02-26T07:28:08.352Z,86.77
2023-02-26T07:28:58.339Z,86.66
2023-02-26T07:29:48.316Z,87.08
2023-02-26T07:30:38.344Z,86.87
2023-02-26T07:31:28.383Z,87.15
2023-02-26T07:32:18.312Z,87.36
2023-02-26T07:33:08.307Z,87.15
2023-02-26T07:33:58.269Z,87.25
2023-02-26T07:34:48.257Z,87.36
2023-02-26T07:35:38.251Z,87.04
2023-02-26T07:36:28.437Z,86.94
2023-02-26T07:37:18.212Z,86.94
2023-02-26T07:38:08.263Z,86.20
2023-02-26T07:38:58.226Z,86.30
2023-02-26T07:39:48.218Z,86.41
2023-02-26T07:40:38.214Z,86.72
2023-02-26T07:41:28.195Z,87.04
2023-02-26T07:42:18.203Z,87.36
2023-02-26T07:43:08.153Z,86.52
2023-02-26T07:43:58.162Z,85.99
2023-02-26T07:44:48.168Z,85.89
2023-02-26T07:45:38.136Z,85.68
2023-02-26T07:46:28.451Z,86.10
2023-02-26T07:47:18.128Z,86.52
2023-02-26T07:48:08.101Z,86.30
2023-02-26T07:48:58.090Z,85.99
2023-02-26T07:49:48.122Z,86.20
2023-02-26T07:50:38.080Z,85.57
2023-02-26T07:51:28.296Z,85.36
2023-02-26T07:52:18.053Z,85.47
2023-02-26T07:53:08.070Z,85.57
2023-02-26T07:53:58.059Z,85.68
2023-02-26T07:54:48.050Z,85.99
2023-02-26T07:55:38.021Z,85.89
2023-02-26T07:56:28.248Z,85.78
2023-02-26T07:57:18.010Z,85.68
2023-02-26T07:58:08.024Z,85.95
2023-02-26T07:58:57.998Z,84.91
2023-02-26T07:59:48.008Z,85.01
2023-02-26T08:00:37.980Z,85.32
2023-02-26T08:01:28.005Z,85.11
2023-02-26T08:02:17.974Z,84.91
2023-02-26T08:03:07.988Z,84.59
2023-02-26T08:03:57.978Z,85.11
2023-02-26T08:04:47.948Z,85.74
2023-02-26T08:05:37.919Z,85.22
2023-02-26T08:06:28.288Z,84.80
2023-02-26T08:07:17.918Z,84.38
2023-02-26T08:08:07.898Z,85.01
2023-02-26T08:08:57.904Z,84.80
2023-02-26T08:09:47.898Z,83.75
2023-02-26T08:10:37.869Z,83.75
2023-02-26T08:11:27.868Z,83.22
2023-02-26T08:12:17.858Z,84.06
2023-02-26T08:13:07.853Z,83.86
2023-02-26T08:13:57.832Z,83.96
2023-02-26T08:14:47.824Z,83.75
2023-02-26T08:15:37.869Z,84.17
2023-02-26T08:16:28.306Z,83.64
2023-02-26T08:17:17.826Z,84.69
2023-02-26T08:18:07.760Z,84.06
2023-02-26T08:18:57.768Z,83.54
2023-02-26T08:19:47.782Z,83.86
2023-02-26T08:20:37.746Z,83.54
2023-02-26T08:21:27.757Z,84.27
2023-02-26T08:22:17.761Z,83.44
2023-02-26T08:23:07.740Z,83.01
2023-02-26T08:23:57.731Z,82.70
2023-02-26T08:24:47.731Z,82.70
2023-02-26T08:25:37.703Z,83.01
2023-02-26T08:26:28.127Z,83.01
2023-02-26T08:27:17.680Z,83.01
2023-02-26T08:28:07.680Z,83.22
2023-02-26T08:28:57.684Z,83.01
2023-02-26T08:29:47.654Z,83.12
2023-02-26T08:30:37.683Z,82.81
2023-02-26T08:31:27.719Z,83.22
2023-02-26T08:32:17.718Z,82.81
2023-02-26T08:33:07.635Z,82.81
2023-02-26T08:33:57.623Z,82.49
2023-02-26T08:34:47.629Z,81.54
2023-02-26T08:35:37.590Z,81.34
2023-02-26T08:36:28.018Z,81.76
2023-02-26T08:37:17.565Z,81.76
2023-02-26T08:38:07.567Z,81.34
2023-02-26T08:38:57.577Z,81.12
2023-02-26T08:39:47.559Z,81.76
2023-02-26T08:40:37.544Z,81.54
2023-02-26T08:41:27.805Z,81.96
2023-02-26T08:42:17.524Z,81.96
2023-02-26T08:43:07.553Z,81.76
2023-02-26T08:43:57.508Z,81.54
2023-02-26T08:44:47.550Z,80.60
2023-02-26T08:45:37.487Z,80.71
2023-02-26T08:46:28.017Z,81.02
2023-02-26T08:47:28.149Z,81.34
2023-02-26T08:48:10.761Z,81.54
2023-02-26T08:48:57.460Z,81.02
2023-02-26T08:49:47.433Z,81.40
2023-02-26T08:50:37.433Z,80.88
2023-02-26T08:51:27.706Z,80.88
2023-02-26T08:52:17.419Z,81.30
2023-02-26T08:53:07.423Z,81.09
2023-02-26T08:53:57.438Z,80.04
2023-02-26T08:54:47.395Z,80.15
2023-02-26T08:55:37.383Z,79.62
2023-02-26T08:56:27.764Z,79.20
2023-02-26T08:57:17.364Z,79.30
2023-02-26T08:58:07.355Z,80.25
2023-02-26T08:58:57.356Z,80.25
2023-02-26T08:59:47.360Z,80.04
2023-02-26T09:00:37.367Z,79.93
2023-02-26T09:01:27.673Z,79.52
2023-02-26T09:02:17.305Z,79.72
2023-02-26T09:03:07.445Z,80.15
2023-02-26T09:03:57.293Z,79.62
2023-02-26T09:04:47.324Z,78.99
2023-02-26T09:05:37.293Z,79.10
2023-02-26T09:06:27.807Z,79.52
2023-02-26T09:07:17.277Z,79.30
2023-02-26T09:08:07.273Z,79.20
2023-02-26T09:08:57.234Z,79.30
2023-02-26T09:09:47.245Z,79.83
2023-02-26T09:10:37.232Z,80.98
2023-02-26T09:11:27.535Z,80.25
2023-02-26T09:12:17.221Z,80.53
2023-02-26T09:13:07.188Z,79.79
2023-02-26T09:13:57.205Z,79.90
2023-02-26T09:14:47.197Z,79.27
2023-02-26T09:15:37.170Z,79.48
2023-02-26T09:16:27.561Z,79.69
2023-02-26T09:17:17.159Z,80.42
2023-02-26T09:18:07.145Z,80.21
2023-02-26T09:18:57.176Z,79.58
2023-02-26T09:19:47.135Z,78.85
2023-02-26T09:20:37.110Z,78.22
2023-02-26T09:21:27.124Z,78.43
2023-02-26T09:22:17.100Z,78.85
2023-02-26T09:23:07.095Z,78.01
2023-02-26T09:23:57.068Z,77.59
2023-02-26T09:24:47.151Z,78.01
2023-02-26T09:25:37.061Z,78.64
2023-02-26T09:26:27.466Z,78.96
2023-02-26T09:27:17.050Z,78.43
2023-02-26T09:28:07.078Z,77.70
2023-02-26T09:28:57.030Z,78.74
2023-02-26T09:29:47.007Z,79.16
2023-02-26T09:30:37.019Z,79.38
2023-02-26T09:31:27.103Z,78.74
2023-02-26T09:32:17.158Z,77.80
2023-02-26T09:33:06.966Z,78.01
2023-02-26T09:33:56.968Z,78.01
2023-02-26T09:34:46.969Z,78.01
2023-02-26T09:35:36.953Z,78.11
2023-02-26T09:36:27.443Z,78.01
2023-02-26T09:37:16.918Z,77.80
2023-02-26T09:38:06.932Z,77.28
2023-02-26T09:38:56.916Z,78.22
2023-02-26T09:39:46.921Z,78.64
2023-02-26T09:40:36.906Z,78.74
2023-02-26T09:41:26.887Z,78.96
2023-02-26T09:42:16.880Z,78.11
2023-02-26T09:43:06.877Z,77.70
2023-02-26T09:43:56.868Z,78.85
2023-02-26T09:44:46.848Z,79.58
2023-02-26T09:45:36.869Z,80.38
2023-02-26T09:46:27.282Z,80.80
2023-02-26T09:47:16.820Z,80.84
2023-02-26T09:48:06.812Z,82.20
2023-02-26T09:48:56.813Z,81.47
2023-02-26T09:49:46.816Z,81.99
2023-02-26T09:50:36.775Z,82.62
2023-02-26T09:51:26.793Z,82.10
2023-02-26T09:52:16.786Z,82.42
2023-02-26T09:53:06.767Z,82.14
2023-02-26T09:53:56.757Z,82.24
2023-02-26T09:54:46.754Z,82.94
2023-02-26T09:55:36.743Z,83.15
2023-02-26T09:56:27.103Z,83.36
2023-02-26T09:57:16.712Z,83.36
2023-02-26T09:58:06.727Z,83.25
2023-02-26T09:58:56.696Z,83.57
2023-02-26T09:59:46.678Z,82.94
2023-02-26T10:00:36.730Z,82.90
2023-02-26T10:01:26.745Z,81.99
2023-02-26T10:02:16.672Z,80.53
2023-02-26T10:03:06.675Z,79.90
2023-02-26T10:03:56.689Z,79.58
2023-02-26T10:04:46.651Z,79.86
2023-02-26T10:05:36.618Z,80.38
2023-02-26T10:06:26.962Z,79.86
2023-02-26T10:07:16.614Z,79.13
2023-02-26T10:08:06.608Z,79.02
2023-02-26T10:08:56.617Z,79.13
2023-02-26T10:09:46.605Z,79.86
2023-02-26T10:10:36.617Z,79.02
2023-02-26T10:11:26.567Z,79.02
2023-02-26T10:12:16.566Z,79.23
2023-02-26T10:13:06.557Z,80.00
2023-02-26T10:13:58.289Z,81.57
2023-02-26T10:14:46.544Z,83.71
2023-02-26T10:15:36.536Z,85.08
2023-02-26T10:16:26.942Z,87.32
2023-02-26T10:17:16.504Z,87.42
2023-02-26T10:18:06.524Z,87.11
2023-02-26T10:18:56.493Z,86.90
2023-02-26T10:19:46.475Z,85.64
2023-02-26T10:20:37.467Z,85.91
2023-02-26T10:21:26.515Z,85.28
2023-02-26T10:22:16.478Z,85.49
2023-02-26T10:23:06.476Z,85.66
2023-02-26T10:23:56.477Z,85.03
2023-02-26T10:24:46.453Z,84.93
2023-02-26T10:25:36.449Z,84.93
2023-02-26T10:26:26.702Z,84.51
2023-02-26T10:27:16.422Z,85.98
2023-02-26T10:28:06.419Z,85.98
2023-02-26T10:28:56.408Z,85.35
2023-02-26T10:29:46.385Z,85.66
2023-02-26T10:30:36.449Z,85.56
2023-02-26T10:31:26.674Z,85.98
2023-02-26T10:32:16.462Z,86.71
2023-02-26T10:33:06.345Z,87.66
2023-02-26T10:33:56.324Z,88.54
2023-02-26T10:34:46.338Z,89.06
2023-02-26T10:35:36.296Z,89.48
2023-02-26T10:36:26.302Z,89.90
2023-02-26T10:37:16.296Z,89.31
2023-02-26T10:38:06.286Z,90.05
2023-02-26T10:38:56.243Z,90.89
2023-02-26T10:39:46.387Z,91.72
2023-02-26T10:40:36.257Z,91.87
2023-02-26T10:41:26.511Z,91.97
2023-02-26T10:42:16.222Z,91.52
2023-02-26T10:43:06.218Z,91.41
2023-02-26T10:43:56.222Z,90.19